Time;durP1;ratioP1;P1;durP2;ratioP2;P2;SDS_P1;SDS_P2;PMS_P1;PMS_P2;Temp;Humidity;BMP_temperature;BMP_pressure;BME280_temperature;BME280_humidity;BME280_pressure;Samples;Min_cycle;Max_cycle;Signal;HPM_P1;HPM_P2
2023/01/27 00:02:51;;;;;;;14.52;13.00;;;22.00;72.70;;;;;;6191132;28;94091;-75
2023/01/27 00:05:54;;;;;;;15.90;13.95;;;22.10;73.20;;;;;;6196722;28;94411;-75
2023/01/27 00:08:56;;;;;;;16.65;14.45;;;22.00;73.00;;;;;;6201647;28;95431;-73
2023/01/27 00:15:17;;;;;;;16.20;14.40;;;22.00;73.00;;;;;;6194507;28;92867;-73
2023/01/27 00:18:19;;;;;;;17.90;15.45;;;22.00;73.00;;;;;;6203809;28;94101;-75
2023/01/27 00:24:42;;;;;;;16.25;14.55;;;22.00;73.10;;;;;;6204228;28;92362;-75
2023/01/27 00:27:45;;;;;;;17.42;14.98;;;22.00;73.00;;;;;;6201925;28;94508;-74
2023/01/27 00:30:47;;;;;;;17.23;15.43;;;21.90;73.00;;;;;;6204946;28;93309;-75
2023/01/27 00:33:48;;;;;;;18.05;15.63;;;22.00;73.00;;;;;;6187780;28;94218;-75
2023/01/27 00:36:51;;;;;;;17.50;15.63;;;21.90;72.80;;;;;;6194473;28;94036;-74
2023/01/27 00:39:53;;;;;;;16.98;15.18;;;21.90;72.90;;;;;;6204101;28;95079;-72
2023/01/27 00:42:55;;;;;;;16.90;15.20;;;21.90;72.80;;;;;;6205690;28;94080;-74
2023/01/27 00:45:57;;;;;;;17.08;15.27;;;21.90;72.90;;;;;;6199908;28;94073;-74
2023/01/27 00:48:59;;;;;;;17.38;15.32;;;21.90;72.80;;;;;;6200005;28;93008;-74
2023/01/27 00:52:03;;;;;;;17.05;15.25;;;21.90;72.80;;;;;;6204066;28;94427;-74
2023/01/27 00:55:08;;;;;;;17.52;15.40;;;21.90;72.80;;;;;;6203067;28;93690;-74
2023/01/27 00:58:11;;;;;;;17.38;15.57;;;21.90;72.80;;;;;;6198964;28;94267;-75
2023/01/27 01:01:15;;;;;;;17.90;16.00;;;21.80;72.70;;;;;;6200309;28;93425;-74
2023/01/27 01:04:17;;;;;;;17.35;15.55;;;21.80;72.70;;;;;;6202692;28;94116;-73
2023/01/27 01:07:20;;;;;;;17.58;15.45;;;21.80;72.60;;;;;;6197549;28;93048;-74
2023/01/27 01:10:22;;;;;;;17.80;15.88;;;21.80;72.60;;;;;;6197591;28;95298;-74
2023/01/27 01:13:26;;;;;;;16.75;15.02;;;21.80;72.70;;;;;;6194490;28;94193;-74
2023/01/27 01:16:28;;;;;;;17.25;15.45;;;21.80;72.70;;;;;;6202702;28;94269;-74
2023/01/27 01:19:30;;;;;;;16.73;14.93;;;21.80;72.60;;;;;;6195246;28;94276;-75
2023/01/27 01:22:34;;;;;;;17.25;15.27;;;21.80;72.60;;;;;;6199699;28;94164;-74
2023/01/27 01:25:36;;;;;;;16.25;14.55;;;21.80;72.50;;;;;;6194438;28;94201;-74
2023/01/27 01:28:38;;;;;;;17.25;15.45;;;21.80;72.50;;;;;;6203122;28;94129;-74
2023/01/27 01:31:40;;;;;;;16.23;14.55;;;21.80;72.50;;;;;;6204017;28;93406;-75
2023/01/27 01:34:43;;;;;;;17.13;15.32;;;21.70;72.40;;;;;;6195947;28;94242;-75
2023/01/27 01:37:46;;;;;;;16.35;14.65;;;21.70;72.40;;;;;;6202648;28;94197;-74
2023/01/27 01:40:48;;;;;;;16.85;15.15;;;21.70;73.30;;;;;;6190929;28;95012;-74
2023/01/27 01:43:51;;;;;;;16.40;14.70;;;21.70;72.50;;;;;;6203970;28;94520;-74
2023/01/27 01:46:53;;;;;;;16.60;14.70;;;21.70;72.40;;;;;;6202162;28;94214;-74
2023/01/27 01:49:55;;;;;;;15.88;14.18;;;21.70;72.50;;;;;;6202937;28;94537;-73
2023/01/27 01:53:01;;;;;;;16.42;14.73;;;21.70;72.50;;;;;;6202918;28;94252;-74
2023/01/27 01:56:10;;;;;;;16.17;14.48;;;21.70;72.40;;;;;;6202312;28;94178;-74
2023/01/27 01:59:15;;;;;;;15.13;13.60;;;21.70;72.40;;;;;;6202675;28;94102;-73
2023/01/27 02:02:21;;;;;;;15.25;13.65;;;21.60;72.30;;;;;;6201855;28;93775;-73
2023/01/27 02:05:28;;;;;;;15.65;14.02;;;21.70;72.50;;;;;;6203380;28;94158;-74
2023/01/27 02:08:36;;;;;;;15.05;13.48;;;21.70;72.40;;;;;;6192440;28;94206;-74
2023/01/27 02:11:38;;;;;;;15.35;13.75;;;21.60;72.40;;;;;;6200712;28;94431;-74
2023/01/27 02:14:41;;;;;;;14.82;13.32;;;21.60;72.30;;;;;;6202849;28;94116;-74
2023/01/27 02:17:44;;;;;;;14.40;12.85;;;21.60;72.20;;;;;;6189491;28;93315;-74
2023/01/27 02:20:49;;;;;;;14.63;13.00;;;21.60;72.20;;;;;;6199621;28;94077;-74
2023/01/27 02:23:59;;;;;;;15.35;13.40;;;21.60;72.20;;;;;;6198019;28;94020;-74
2023/01/27 02:27:02;;;;;;;14.52;13.02;;;21.60;72.20;;;;;;6195846;28;94110;-74
2023/01/27 02:30:05;;;;;;;13.95;12.45;;;21.60;72.20;;;;;;6202851;28;94402;-74
2023/01/27 02:33:11;;;;;;;14.20;12.70;;;21.60;72.20;;;;;;6201090;28;93359;-75
2023/01/27 02:36:16;;;;;;;13.90;12.50;;;21.60;72.20;;;;;;6201869;28;93052;-74
2023/01/27 02:39:22;;;;;;;14.07;12.57;;;21.60;72.20;;;;;;6201634;28;93978;-75
2023/01/27 02:42:27;;;;;;;13.68;12.25;;;21.50;72.20;;;;;;6200649;28;95153;-74
2023/01/27 02:45:29;;;;;;;12.90;11.60;;;21.50;72.10;;;;;;6193398;28;94424;-74
2023/01/27 02:48:31;;;;;;;12.55;11.25;;;21.50;72.10;;;;;;6197258;28;94139;-73
2023/01/27 02:51:33;;;;;;;13.27;11.95;;;21.50;72.00;;;;;;6201615;28;94145;-75
2023/01/27 02:54:35;;;;;;;12.77;11.48;;;21.50;72.00;;;;;;6201803;28;94127;-74
2023/01/27 02:57:38;;;;;;;13.48;12.05;;;21.50;72.00;;;;;;6193700;28;94545;-73
2023/01/27 03:00:41;;;;;;;13.07;11.68;;;21.50;72.10;;;;;;6200890;28;94220;-74
2023/01/27 03:03:45;;;;;;;11.60;10.40;;;21.50;72.00;;;;;;6202383;28;93046;-74
2023/01/27 03:06:47;;;;;;;12.65;11.30;;;21.50;72.10;;;;;;6185553;28;94315;-74
2023/01/27 03:09:49;;;;;;;12.07;10.75;;;21.50;72.10;;;;;;6200015;28;94111;-75
2023/01/27 03:12:53;;;;;;;12.57;11.27;;;21.50;72.00;;;;;;6201455;28;95140;-75
2023/01/27 03:19:17;;;;;;;11.90;10.70;;;21.40;72.10;;;;;;6198800;28;92970;-75
2023/01/27 03:22:19;;;;;;;11.27;10.15;;;21.50;72.10;;;;;;6199707;28;94201;-75
2023/01/27 03:25:21;;;;;;;11.20;10.00;;;21.50;72.20;;;;;;6196719;28;94070;-75
2023/01/27 03:28:25;;;;;;;12.30;10.73;;;21.40;72.00;;;;;;6201046;28;94219;-75
2023/01/27 03:31:27;;;;;;;11.55;10.38;;;21.40;72.00;;;;;;6196705;28;94266;-75
2023/01/27 03:34:29;;;;;;;11.10;10.00;;;21.40;72.10;;;;;;6193530;28;93392;-75
2023/01/27 03:47:32;;;;;;;10.15;9.15;;;21.40;72.20;;;;;;6200703;28;94114;-75
2023/01/27 03:50:37;;;;;;;10.18;9.18;;;21.30;72.00;;;;;;6199633;28;94031;-75
2023/01/27 03:53:39;;;;;;;10.10;9.00;;;21.30;72.00;;;;;;6192589;28;94050;-74
2023/01/27 03:56:41;;;;;;;9.60;8.70;;;21.30;71.90;;;;;;6199840;28;93641;-75
2023/01/27 03:59:44;;;;;;;9.18;8.27;;;21.30;72.00;;;;;;6202406;28;94101;-75
2023/01/27 04:09:28;;;;;;;9.40;8.50;;;21.30;72.00;;;;;;6199250;28;93690;-75
2023/01/27 04:12:31;;;;;;;9.68;8.68;;;21.30;71.90;;;;;;6199162;28;94668;-75
2023/01/27 04:15:34;;;;;;;9.55;8.65;;;21.30;72.00;;;;;;6199552;28;95063;-74
2023/01/27 04:18:37;;;;;;;9.32;8.43;;;21.30;72.10;;;;;;6199720;28;94169;-74
2023/01/27 04:21:39;;;;;;;8.88;7.97;;;21.30;72.10;;;;;;6186603;28;94022;-75
2023/01/27 04:24:41;;;;;;;8.57;7.78;;;21.30;72.10;;;;;;6188326;28;94156;-73
2023/01/27 04:27:43;;;;;;;8.95;7.88;;;21.20;72.00;;;;;;6198312;28;94187;-73
2023/01/27 04:30:47;;;;;;;8.65;7.78;;;21.30;72.10;;;;;;6200661;28;94139;-73
2023/01/27 04:33:49;;;;;;;8.50;7.70;;;21.30;72.10;;;;;;6200446;28;94222;-73
2023/01/27 04:36:52;;;;;;;8.10;7.30;;;21.30;72.10;;;;;;6201078;28;93597;-74
2023/01/27 04:39:54;;;;;;;8.20;7.40;;;21.30;71.90;;;;;;6186257;28;94258;-74
2023/01/27 04:42:56;;;;;;;7.65;6.93;;;21.30;72.00;;;;;;6201119;28;94083;-74
2023/01/27 04:46:00;;;;;;;7.80;7.00;;;21.30;72.00;;;;;;6199860;28;95066;-74
2023/01/27 04:49:03;;;;;;;7.72;6.95;;;21.30;71.90;;;;;;6201046;28;94076;-73
2023/01/27 04:52:05;;;;;;;7.40;6.70;;;21.30;71.90;;;;;;6203965;28;94094;-74
2023/01/27 04:55:08;;;;;;;7.30;6.60;;;21.30;71.90;;;;;;6203786;28;94119;-75
2023/01/27 04:58:11;;;;;;;7.47;6.78;;;21.30;71.80;;;;;;6204739;28;94124;-74
2023/01/27 05:01:14;;;;;;;7.75;6.93;;;21.30;71.70;;;;;;6202809;28;94091;-74
2023/01/27 05:04:16;;;;;;;7.43;6.50;;;21.40;71.70;;;;;;6204839;28;94210;-74
2023/01/27 05:07:18;;;;;;;6.90;6.20;;;21.40;71.70;;;;;;6205800;28;93405;-74
2023/01/27 05:10:20;;;;;;;6.97;6.30;;;21.40;71.60;;;;;;6194083;28;94082;-75
2023/01/27 05:13:22;;;;;;;6.78;6.05;;;21.40;71.60;;;;;;6202572;28;94177;-75
2023/01/27 05:16:26;;;;;;;6.72;6.10;;;21.40;71.60;;;;;;6207305;28;95245;-73
2023/01/27 05:19:28;;;;;;;6.30;5.70;;;21.40;71.50;;;;;;6205232;28;94183;-74
2023/01/27 05:22:30;;;;;;;6.45;5.85;;;21.50;71.50;;;;;;6205373;28;94329;-74
2023/01/27 05:25:32;;;;;;;6.40;5.70;;;21.50;71.50;;;;;;6204446;28;94086;-74
2023/01/27 05:28:35;;;;;;;6.43;5.75;;;21.50;71.50;;;;;;6202076;28;94077;-74
2023/01/27 05:31:39;;;;;;;6.75;5.90;;;21.50;71.30;;;;;;6203722;28;94233;-73
2023/01/27 05:34:41;;;;;;;6.30;5.70;;;21.60;71.30;;;;;;6193913;28;94111;-74
2023/01/27 05:37:43;;;;;;;6.85;6.07;;;21.60;71.30;;;;;;6204440;28;93428;-74
2023/01/27 05:40:45;;;;;;;6.25;5.65;;;21.60;71.30;;;;;;6204319;28;94173;-74
2023/01/27 05:43:51;;;;;;;6.13;5.53;;;21.60;72.20;;;;;;6203411;28;94024;-74
2023/01/27 05:46:55;;;;;;;6.15;5.55;;;21.70;71.20;;;;;;6203681;28;94009;-75
2023/01/27 05:49:57;;;;;;;5.57;5.03;;;21.70;71.10;;;;;;6205037;28;94120;-74
2023/01/27 05:52:59;;;;;;;5.78;5.22;;;21.70;71.10;;;;;;6203351;28;92919;-72
2023/01/27 05:56:03;;;;;;;6.28;5.10;;;21.70;71.10;;;;;;6194129;28;94337;-74
2023/01/27 05:59:05;;;;;;;5.63;5.03;;;21.70;69.90;;;;;;6200259;28;94116;-75
2023/01/27 06:02:09;;;;;;;7.57;5.60;;;21.70;68.10;;;;;;6195754;28;94341;-74
2023/01/27 06:05:11;;;;;;;5.85;5.10;;;21.80;70.60;;;;;;6186698;28;94074;-74
2023/01/27 06:08:13;;;;;;;4.88;4.38;;;21.80;72.30;;;;;;6191697;28;92276;-73
2023/01/27 06:11:16;;;;;;;5.20;4.70;;;21.90;70.30;;;;;;6200156;28;94069;-76
2023/01/27 06:14:19;;;;;;;4.93;4.03;;;21.90;69.30;;;;;;6202254;28;94283;-74
2023/01/27 06:17:22;;;;;;;6.47;4.35;;;21.90;69.80;;;;;;6202950;28;95135;-75
2023/01/27 06:20:25;;;;;;;5.40;4.47;;;21.90;69.90;;;;;;6199676;28;93788;-75
2023/01/27 06:23:28;;;;;;;5.80;4.90;;;22.00;70.20;;;;;;6194952;28;94122;-74
2023/01/27 06:26:31;;;;;;;5.15;4.55;;;22.00;70.30;;;;;;6198133;28;93010;-78
2023/01/27 06:29:33;;;;;;;4.47;4.07;;;22.00;70.50;;;;;;6191478;28;95073;-73
2023/01/27 06:32:37;;;;;;;4.80;4.30;;;22.00;70.80;;;;;;6200819;28;94164;-74
2023/01/27 06:35:41;;;;;;;5.63;4.65;;;22.00;70.60;;;;;;6202600;28;94604;-74
2023/01/27 06:38:44;;;;;;;4.90;4.40;;;22.00;70.50;;;;;;6200501;28;93385;-73
2023/01/27 06:41:46;;;;;;;4.65;4.05;;;22.00;70.40;;;;;;6201764;28;94463;-74
2023/01/27 06:44:48;;;;;;;4.95;4.18;;;22.00;70.50;;;;;;6198998;28;94151;-74
2023/01/27 06:47:56;;;;;;;6.10;4.47;;;22.00;70.50;;;;;;6200850;28;95383;-75
2023/01/27 06:50:58;;;;;;;7.82;4.53;;;22.00;70.60;;;;;;6202850;28;94062;-74
2023/01/27 06:54:00;;;;;;;6.20;4.50;;;22.00;70.70;;;;;;6201289;28;93175;-73
2023/01/27 06:57:02;;;;;;;8.90;5.07;;;22.00;70.80;;;;;;6201470;28;94405;-73
2023/01/27 07:00:05;;;;;;;7.95;4.88;;;22.10;71.00;;;;;;6194239;28;93992;-74
2023/01/27 07:03:11;;;;;;;7.97;4.75;;;22.10;71.00;;;;;;6196011;28;94163;-74
2023/01/27 07:06:13;;;;;;;10.23;5.38;;;22.10;71.00;;;;;;6190140;28;94130;-75
2023/01/27 07:09:16;;;;;;;7.30;4.53;;;22.10;70.90;;;;;;6203055;28;93463;-74
2023/01/27 07:12:18;;;;;;;10.13;5.35;;;22.10;70.90;;;;;;6198393;28;94525;-74
2023/01/27 07:15:20;;;;;;;6.57;4.53;;;22.10;70.90;;;;;;6202328;28;93983;-74
2023/01/27 07:18:23;;;;;;;7.65;4.35;;;22.10;70.80;;;;;;6200596;28;95991;-73
2023/01/27 07:21:25;;;;;;;8.80;4.78;;;22.10;70.90;;;;;;6198770;28;94247;-74
2023/01/27 07:24:27;;;;;;;11.15;5.30;;;22.10;70.80;;;;;;6201480;28;94423;-74
2023/01/27 07:27:30;;;;;;;9.65;5.43;;;22.20;71.00;;;;;;6199017;28;94079;-74
2023/01/27 07:30:32;;;;;;;11.90;5.93;;;22.20;71.00;;;;;;6196971;28;94419;-74
2023/01/27 07:33:36;;;;;;;9.98;5.32;;;22.20;71.10;;;;;;6196079;28;93961;-73
2023/01/27 07:36:38;;;;;;;9.70;5.32;;;22.20;71.10;;;;;;6187041;28;94083;-75
2023/01/27 07:39:40;;;;;;;10.00;5.78;;;22.20;71.10;;;;;;6192910;28;93731;-74
2023/01/27 07:42:42;;;;;;;9.00;5.40;;;22.20;71.10;;;;;;6195535;28;94380;-74
2023/01/27 07:45:47;;;;;;;10.52;5.28;;;22.20;71.20;;;;;;6199791;28;94032;-74
2023/01/27 07:48:51;;;;;;;9.82;5.47;;;22.30;71.20;;;;;;6190915;28;95040;-74
2023/01/27 07:51:53;;;;;;;9.32;5.63;;;22.20;71.10;;;;;;6194370;28;94098;-74
2023/01/27 07:54:55;;;;;;;8.80;4.97;;;22.30;71.10;;;;;;6201249;28;94102;-74
2023/01/27 07:57:58;;;;;;;7.88;5.07;;;22.30;71.10;;;;;;6190617;28;94169;-75
2023/01/27 08:01:00;;;;;;;7.85;4.97;;;22.30;71.10;;;;;;6183613;28;96057;-74
2023/01/27 08:04:03;;;;;;;7.72;4.68;;;22.30;71.00;;;;;;6199023;28;94311;-75
2023/01/27 08:07:06;;;;;;;9.38;4.80;;;22.30;71.00;;;;;;6200546;28;93233;-75
2023/01/27 08:10:09;;;;;;;7.47;4.70;;;22.30;71.00;;;;;;6201252;28;93457;-75
2023/01/27 08:13:11;;;;;;;6.55;4.32;;;22.30;71.00;;;;;;6198413;28;94086;-74
2023/01/27 08:16:15;;;;;;;9.07;4.60;;;22.40;71.00;;;;;;6200783;28;94202;-74
2023/01/27 08:19:19;;;;;;;7.43;3.97;;;22.30;70.80;;;;;;6200183;28;95195;-74
2023/01/27 08:22:21;;;;;;;7.78;4.60;;;22.30;70.80;;;;;;6199835;28;93378;-74
2023/01/27 08:25:23;;;;;;;7.60;4.57;;;22.40;70.90;;;;;;6203530;28;94019;-73
2023/01/27 08:28:26;;;;;;;7.28;4.43;;;22.40;70.90;;;;;;6189757;28;94505;-73
2023/01/27 08:31:28;;;;;;;6.53;4.47;;;22.40;70.90;;;;;;6203024;28;93685;-75
2023/01/27 08:34:32;;;;;;;6.50;4.47;;;22.40;70.90;;;;;;6205571;28;94314;-73
2023/01/27 08:37:34;;;;;;;5.80;3.97;;;22.40;70.80;;;;;;6204888;28;94241;-74
2023/01/27 08:40:36;;;;;;;7.32;4.38;;;22.40;70.80;;;;;;6196228;28;92670;-74
2023/01/27 08:43:38;;;;;;;6.13;4.35;;;22.40;70.80;;;;;;6196495;28;94186;-73
2023/01/27 08:46:40;;;;;;;5.65;4.10;;;22.40;70.80;;;;;;6199920;28;94233;-74
2023/01/27 08:49:43;;;;;;;7.20;4.50;;;22.40;70.80;;;;;;6203078;28;95469;-75
2023/01/27 08:52:45;;;;;;;6.53;3.92;;;22.50;70.80;;;;;;6205478;28;94407;-75
2023/01/27 08:55:48;;;;;;;6.68;4.20;;;22.40;70.80;;;;;;6204670;28;94320;-74
2023/01/27 08:58:51;;;;;;;5.75;3.85;;;22.50;70.80;;;;;;6201268;28;94511;-75
2023/01/27 09:01:53;;;;;;;6.10;3.85;;;22.40;70.80;;;;;;6204353;28;94376;-74
2023/01/27 09:04:56;;;;;;;6.03;3.60;;;22.50;70.80;;;;;;6204577;28;94490;-74
2023/01/27 09:07:58;;;;;;;5.50;3.85;;;22.50;70.80;;;;;;6203731;28;94474;-74
2023/01/27 09:11:00;;;;;;;6.38;3.72;;;22.40;70.70;;;;;;6204668;28;93744;-74
2023/01/27 09:14:02;;;;;;;5.55;3.80;;;22.50;70.80;;;;;;6204113;28;94455;-74
2023/01/27 09:17:04;;;;;;;5.05;3.72;;;22.50;70.70;;;;;;6204229;28;94058;-74
2023/01/27 09:20:09;;;;;;;5.97;3.72;;;22.50;70.80;;;;;;6204222;28;95065;-75
2023/01/27 09:23:11;;;;;;;5.25;3.65;;;22.50;70.80;;;;;;6202443;28;94492;-74
2023/01/27 09:26:13;;;;;;;5.68;3.78;;;22.50;70.80;;;;;;6193991;28;94266;-74
2023/01/27 09:29:15;;;;;;;5.10;3.50;;;22.50;70.80;;;;;;6204335;28;94065;-72
2023/01/27 09:32:17;;;;;;;5.38;3.75;;;22.50;70.70;;;;;;6204844;28;94088;-75
2023/01/27 09:35:21;;;;;;;4.68;3.60;;;22.50;70.70;;;;;;6203976;28;94560;-74
2023/01/27 09:38:27;;;;;;;4.22;3.47;;;22.50;70.70;;;;;;6204147;28;94209;-73
2023/01/27 09:41:50;;;;;;;5.13;4.00;;;22.50;70.70;;;;;;6202909;28;93322;-73
2023/01/27 09:45:25;;;;;;;4.55;3.25;;;22.50;70.60;;;;;;6203011;28;94184;-72
2023/01/27 09:48:45;;;;;;;3.83;3.30;;;22.50;70.60;;;;;;6198174;28;94188;-73
2023/01/27 09:52:00;;;;;;;4.78;3.72;;;22.50;70.70;;;;;;6192081;28;95350;-73
2023/01/27 09:55:08;;;;;;;4.90;3.63;;;22.50;70.70;;;;;;6203942;28;93301;-72
2023/01/27 09:58:19;;;;;;;3.88;3.22;;;22.50;70.80;;;;;;6195469;28;94179;-73
2023/01/27 10:01:28;;;;;;;4.55;3.53;;;22.50;70.80;;;;;;6203765;28;94593;-73
2023/01/27 10:05:03;;;;;;;5.13;3.50;;;22.50;70.90;;;;;;6205813;28;94327;-75
2023/01/27 10:08:25;;;;;;;5.13;3.40;;;22.40;73.30;;;;;;6194693;28;94221;-73
2023/01/27 10:11:36;;;;;;;5.30;3.40;;;22.40;73.50;;;;;;6200006;28;93904;-74
2023/01/27 10:14:46;;;;;;;3.92;2.92;;;22.40;72.50;;;;;;6203276;28;93370;-73
2023/01/27 10:18:00;;;;;;;3.75;2.90;;;22.40;72.00;;;;;;6203697;28;94223;-72
2023/01/27 10:21:08;;;;;;;3.80;3.40;;;22.30;70.80;;;;;;6200198;28;94360;-73
2023/01/27 10:24:25;;;;;;;3.90;3.08;;;22.30;70.80;;;;;;6201687;28;95675;-73
2023/01/27 10:27:30;;;;;;;3.42;3.00;;;22.30;70.60;;;;;;6200812;28;94016;-73
2023/01/27 10:30:35;;;;;;;3.75;2.80;;;22.30;70.60;;;;;;6203000;28;94249;-73
2023/01/27 10:33:47;;;;;;;3.50;2.90;;;22.30;70.50;;;;;;6199486;28;94112;-72
2023/01/27 10:36:57;;;;;;;3.72;3.03;;;22.30;70.50;;;;;;6193304;28;93974;-72
2023/01/27 10:40:07;;;;;;;3.25;2.95;;;22.20;70.50;;;;;;6190722;28;93905;-73
2023/01/27 10:43:17;;;;;;;4.07;2.95;;;22.30;70.50;;;;;;6191567;28;94312;-73
2023/01/27 10:46:32;;;;;;;3.13;2.72;;;22.30;70.60;;;;;;6202160;28;93411;-72
2023/01/27 10:49:39;;;;;;;2.92;2.60;;;22.30;70.70;;;;;;6200862;28;94189;-73
2023/01/27 10:52:45;;;;;;;4.05;3.00;;;22.30;70.60;;;;;;6197525;28;94062;-73
2023/01/27 10:55:56;;;;;;;2.83;2.53;;;22.30;70.60;;;;;;6198531;28;95208;-73
2023/01/27 10:59:04;;;;;;;3.55;2.78;;;22.30;70.60;;;;;;6197365;28;94406;-73
2023/01/27 11:02:15;;;;;;;3.90;2.80;;;22.30;70.50;;;;;;6200530;28;94156;-73
2023/01/27 11:05:20;;;;;;;3.72;3.00;;;22.30;70.50;;;;;;6199291;28;94046;-73
2023/01/27 11:08:25;;;;;;;4.82;3.13;;;22.40;70.50;;;;;;6198531;28;94201;-73
2023/01/27 11:11:44;;;;;;;3.88;3.15;;;22.30;70.40;;;;;;6200218;28;94351;-71
2023/01/27 11:14:49;;;;;;;7.28;2.95;;;22.30;70.60;;;;;;6193072;28;94328;-71
2023/01/27 11:17:57;;;;;;;4.90;2.85;;;22.30;70.90;;;;;;6195265;28;93455;-72
2023/01/27 11:21:05;;;;;;;771.72;182.90;;;22.30;72.20;;;;;;6194315;28;94434;-71
2023/01/27 11:24:19;;;;;;;60.05;18.92;;;22.40;81.90;;;;;;6194746;28;94244;-71
2023/01/27 11:27:36;;;;;;;49.75;15.73;;;22.50;79.60;;;;;;6193819;28;95076;-70
2023/01/27 11:30:44;;;;;;;35.10;11.65;;;22.50;78.50;;;;;;6194831;28;94027;-71
2023/01/27 11:33:58;;;;;;;36.03;10.88;;;22.60;77.40;;;;;;6200668;28;94164;-72
2023/01/27 11:37:01;;;;;;;32.17;10.63;;;22.60;75.80;;;;;;6199448;28;94207;-71
2023/01/27 11:40:13;;;;;;;30.67;8.90;;;22.70;75.50;;;;;;6190577;28;94296;-72
2023/01/27 11:43:19;;;;;;;29.42;9.35;;;22.70;75.10;;;;;;6191043;28;94217;-69
2023/01/27 11:46:24;;;;;;;24.05;8.90;;;22.70;74.90;;;;;;6196740;28;94098;-74
2023/01/27 11:49:30;;;;;;;25.67;9.52;;;22.70;74.80;;;;;;6200210;28;93753;-72
2023/01/27 11:52:32;;;;;;;21.52;8.70;;;22.80;74.80;;;;;;6193721;28;94161;-72
2023/01/27 11:55:38;;;;;;;22.02;7.60;;;22.80;74.70;;;;;;6199486;28;94209;-71
2023/01/27 11:58:47;;;;;;;17.27;7.43;;;22.80;74.60;;;;;;6192061;28;95399;-73
2023/01/27 12:01:54;;;;;;;18.25;7.45;;;22.80;74.60;;;;;;6206315;28;94159;-72
2023/01/27 12:05:02;;;;;;;16.90;7.10;;;22.80;74.60;;;;;;6202152;28;94096;-74
2023/01/27 12:08:06;;;;;;;12.60;5.93;;;22.80;74.40;;;;;;6204936;28;94123;-74
2023/01/27 12:11:25;;;;;;;15.85;5.95;;;22.80;73.30;;;;;;6203996;28;94182;-76
2023/01/27 12:14:29;;;;;;;19.00;6.88;;;22.80;73.40;;;;;;6206591;28;94695;-75
2023/01/27 12:17:35;;;;;;;13.88;6.22;;;22.80;73.30;;;;;;6204089;28;94263;-76
2023/01/27 12:20:39;;;;;;;13.32;6.38;;;22.80;73.30;;;;;;6206449;28;93708;-78
2023/01/27 12:23:49;;;;;;;13.80;6.05;;;22.80;73.20;;;;;;6203701;28;94211;-76
2023/01/27 12:26:52;;;;;;;13.32;6.13;;;22.80;73.20;;;;;;6202730;28;94170;-77
2023/01/27 12:29:58;;;;;;;15.23;6.28;;;22.80;73.20;;;;;;6203374;28;95164;-75
2023/01/27 12:33:10;;;;;;;12.68;5.15;;;22.80;73.20;;;;;;6193562;28;94784;-76
2023/01/27 12:36:16;;;;;;;12.82;5.68;;;22.70;73.10;;;;;;6202592;28;92992;-75
2023/01/27 12:39:33;;;;;;;13.13;5.60;;;22.70;73.10;;;;;;6197243;28;94203;-75
2023/01/27 12:42:40;;;;;;;14.02;5.30;;;22.70;73.00;;;;;;6204010;28;94120;-76
2023/01/27 12:45:44;;;;;;;10.20;5.00;;;22.70;73.00;;;;;;6203924;28;94071;-75
2023/01/27 12:48:49;;;;;;;12.10;5.72;;;22.70;73.00;;;;;;6204361;28;94076;-76
2023/01/27 12:51:54;;;;;;;12.43;5.50;;;22.70;73.00;;;;;;6203896;28;92275;-77
2023/01/27 12:54:56;;;;;;;11.20;5.30;;;22.70;73.00;;;;;;6204904;28;94130;-74
2023/01/27 12:57:58;;;;;;;10.32;4.88;;;22.70;73.00;;;;;;6203289;28;94346;-77
2023/01/27 13:01:05;;;;;;;11.35;5.30;;;22.70;72.90;;;;;;6203563;28;95421;-76
2023/01/27 13:04:15;;;;;;;9.30;4.70;;;22.70;72.80;;;;;;6204688;28;94461;-76
2023/01/27 13:07:19;;;;;;;10.73;4.72;;;22.70;72.80;;;;;;6205206;28;94264;-74
2023/01/27 13:10:23;;;;;;;11.90;4.80;;;22.70;72.80;;;;;;6195699;28;94132;-75
2023/01/27 13:13:26;;;;;;;11.30;5.07;;;22.70;72.70;;;;;;6186343;28;94080;-75
2023/01/27 13:16:30;;;;;;;8.90;4.70;;;22.70;72.50;;;;;;6201183;28;94239;-75
2023/01/27 13:19:40;;;;;;;9.43;4.50;;;22.70;72.40;;;;;;6203756;28;94427;-76
2023/01/27 13:22:46;;;;;;;7.90;4.25;;;22.70;72.40;;;;;;6203831;28;93419;-75
2023/01/27 13:25:53;;;;;;;8.43;4.32;;;22.70;72.40;;;;;;6190724;28;94065;-76
2023/01/27 13:28:59;;;;;;;7.38;4.40;;;22.70;72.30;;;;;;6200225;28;94058;-75
2023/01/27 13:32:05;;;;;;;7.57;4.38;;;22.70;72.30;;;;;;6201375;28;95228;-75
2023/01/27 13:35:18;;;;;;;10.15;4.82;;;22.70;72.30;;;;;;6200944;28;95210;-75
2023/01/27 13:38:27;;;;;;;7.82;4.18;;;22.70;72.20;;;;;;6188626;28;94273;-75
2023/01/27 13:41:36;;;;;;;7.10;4.15;;;22.70;72.10;;;;;;6186632;28;94301;-76
2023/01/27 13:44:42;;;;;;;8.00;4.00;;;22.70;72.20;;;;;;6192260;28;94070;-76
2023/01/27 13:47:51;;;;;;;7.40;4.20;;;22.70;72.00;;;;;;6196800;28;94133;-76
2023/01/27 13:51:02;;;;;;;7.60;4.35;;;22.70;72.00;;;;;;6192261;28;94271;-74
2023/01/27 13:54:05;;;;;;;6.32;3.88;;;22.60;72.00;;;;;;6203045;28;93993;-76
2023/01/27 13:57:44;;;;;;;7.32;3.83;;;22.70;72.00;;;;;;6193193;28;94200;-76
2023/01/27 14:00:55;;;;;;;6.95;4.05;;;22.70;72.00;;;;;;6181443;28;94247;-76
2023/01/27 14:04:19;;;;;;;5.93;3.72;;;22.70;72.00;;;;;;6201734;28;95126;-78
2023/01/27 14:07:26;;;;;;;8.23;4.03;;;22.70;71.90;;;;;;6201965;28;93848;-75
2023/01/27 14:10:34;;;;;;;6.78;3.75;;;22.70;71.80;;;;;;6192095;28;93158;-75
2023/01/27 14:13:53;;;;;;;5.95;3.47;;;22.70;72.20;;;;;;6202886;28;94193;-76
2023/01/27 14:17:28;;;;;;;7.55;3.70;;;22.70;72.30;;;;;;6202607;28;94294;-72
2023/01/27 14:20:49;;;;;;;5.63;3.70;;;22.60;72.30;;;;;;6203288;28;94142;-74
2023/01/27 14:24:00;;;;;;;6.60;3.70;;;22.70;72.20;;;;;;6194097;28;94241;-75
2023/01/27 14:27:08;;;;;;;5.30;3.42;;;22.70;72.20;;;;;;6201162;28;93465;-75
2023/01/27 14:30:17;;;;;;;5.85;3.60;;;22.70;72.20;;;;;;6197525;28;94171;-77
2023/01/27 14:33:27;;;;;;;6.43;4.50;;;22.70;72.10;;;;;;6203633;28;94238;-76
2023/01/27 14:36:35;;;;;;;6.15;5.45;;;22.70;71.40;;;;;;6195569;28;95015;-76
2023/01/27 14:39:45;;;;;;;5.70;5.10;;;22.70;67.70;;;;;;6192191;28;96031;-77
2023/01/27 14:42:59;;;;;;;7.75;5.93;;;22.70;64.80;;;;;;6192529;28;94473;-77
2023/01/27 14:46:12;;;;;;;7.38;6.68;;;22.60;61.10;;;;;;6198140;28;94105;-76
2023/01/27 14:49:25;;;;;;;8.20;6.50;;;22.50;56.50;;;;;;6201628;28;94213;-74
2023/01/27 14:52:40;;;;;;;7.35;6.03;;;22.30;56.10;;;;;;6199904;28;93483;-76
2023/01/27 14:55:48;;;;;;;5.65;4.40;;;22.30;58.20;;;;;;6200270;28;93982;-76
2023/01/27 14:58:59;;;;;;;5.00;4.43;;;22.20;59.20;;;;;;6189868;28;93812;-71
2023/01/27 15:02:12;;;;;;;4.25;3.70;;;22.30;60.00;;;;;;6195199;28;94212;-76
2023/01/27 15:05:22;;;;;;;5.32;3.85;;;22.20;61.20;;;;;;6193430;28;94458;-77
2023/01/27 15:08:34;;;;;;;6.30;3.85;;;22.30;62.20;;;;;;6192517;28;95241;-73
2023/01/27 15:12:14;;;;;;;4.40;3.75;;;22.30;62.70;;;;;;6197669;28;94086;-78
2023/01/27 15:15:43;;;;;;;4.38;3.17;;;22.30;63.20;;;;;;6190383;28;94656;-77
2023/01/27 15:19:32;;;;;;;3.75;3.35;;;22.40;63.70;;;;;;6200942;28;93086;-79
2023/01/27 15:22:47;;;;;;;4.22;2.97;;;22.40;64.00;;;;;;6179264;28;94467;-78
2023/01/27 15:25:54;;;;;;;3.33;2.88;;;22.40;64.30;;;;;;6199574;28;94231;-77
2023/01/27 15:28:58;;;;;;;3.28;2.97;;;22.40;64.60;;;;;;6186425;28;94410;-78
2023/01/27 15:32:33;;;;;;;3.60;3.00;;;22.50;64.90;;;;;;6199911;28;93466;-78
2023/01/27 15:35:39;;;;;;;2.90;2.60;;;22.50;65.10;;;;;;6195684;28;94226;-77
2023/01/27 15:38:41;;;;;;;3.47;2.90;;;22.50;65.40;;;;;;6200543;28;94052;-79
2023/01/27 15:42:10;;;;;;;3.13;2.63;;;22.50;65.60;;;;;;6198818;28;95308;-76
2023/01/27 15:45:26;;;;;;;3.33;2.60;;;22.50;65.80;;;;;;6194345;28;94299;-75
2023/01/27 15:48:33;;;;;;;3.08;2.65;;;22.50;66.30;;;;;;6191184;28;94115;-76
2023/01/27 15:51:37;;;;;;;3.33;2.53;;;22.50;66.50;;;;;;6189545;28;94337;-76
2023/01/27 15:54:41;;;;;;;3.15;2.85;;;22.50;66.60;;;;;;6201381;28;94231;-74
2023/01/27 15:57:45;;;;;;;3.05;2.70;;;22.50;66.70;;;;;;6189106;28;94464;-75
2023/01/27 16:00:51;;;;;;;3.67;2.67;;;22.50;66.90;;;;;;6203131;28;94508;-73
2023/01/27 16:04:05;;;;;;;3.42;2.83;;;22.50;67.00;;;;;;6190665;28;93392;-76
2023/01/27 16:07:20;;;;;;;3.55;2.47;;;22.60;67.20;;;;;;6183935;28;94273;-75
2023/01/27 16:10:27;;;;;;;3.70;2.47;;;22.50;67.50;;;;;;6190181;28;94248;-76
2023/01/27 16:13:30;;;;;;;2.83;2.58;;;22.50;67.40;;;;;;6187998;28;94585;-75
2023/01/27 16:16:35;;;;;;;3.47;2.70;;;22.50;67.40;;;;;;6198275;28;94261;-73
2023/01/27 16:19:43;;;;;;;4.22;2.80;;;22.60;67.60;;;;;;6192553;28;94505;-75
2023/01/27 16:22:51;;;;;;;5.47;2.97;;;22.60;68.50;;;;;;6190497;28;94159;-70
2023/01/27 16:26:02;;;;;;;4.63;2.60;;;22.60;68.90;;;;;;6187632;28;94102;-74
2023/01/27 16:29:21;;;;;;;4.55;2.80;;;22.60;68.90;;;;;;6198654;28;94066;-73